sensor_id;sensor_type;location;lat;lon;timestamp;P1;P2;P0
43280;PMS5003;62175;49.416;8.690;2022-09-30T00:00:53;6;5;
43280;PMS5003;62175;49.416;8.690;2022-09-30T00:03:20;7;7;
43280;PMS5003;62175;49.416;8.690;2022-09-30T00:05:47;3;3;
43280;PMS5003;62175;49.416;8.690;2022-09-30T00:08:22;5;5;
43280;PMS5003;62175;49.416;8.690;2022-09-30T00:10:59;5;5;
43280;PMS5003;62175;49.416;8.690;2022-09-30T00:13:28;6;5;
43280;PMS5003;62175;49.416;8.690;2022-09-30T00:15:56;7;7;
43280;PMS5003;62175;49.416;8.690;2022-09-30T00:18:24;3;3;
43280;PMS5003;62175;49.416;8.690;2022-09-30T00:20:52;4;4;
43280;PMS5003;62175;49.416;8.690;2022-09-30T00:23:20;6;6;
43280;PMS5003;62175;49.416;8.690;2022-09-30T00:25:48;6;5;
43280;PMS5003;62175;49.416;8.690;2022-09-30T00:28:17;6;5;
43280;PMS5003;62175;49.416;8.690;2022-09-30T00:30:44;5;5;
43280;PMS5003;62175;49.416;8.690;2022-09-30T00:33:11;6;6;
43280;PMS5003;62175;49.416;8.690;2022-09-30T00:35:39;6;5;
43280;PMS5003;62175;49.416;8.690;2022-09-30T00:38:07;6;6;
43280;PMS5003;62175;49.416;8.690;2022-09-30T00:40:37;5;4;
43280;PMS5003;62175;49.416;8.690;2022-09-30T00:43:07;7;6;
43280;PMS5003;62175;49.416;8.690;2022-09-30T00:45:39;7;5;
43280;PMS5003;62175;49.416;8.690;2022-09-30T00:48:16;5;5;
43280;PMS5003;62175;49.416;8.690;2022-09-30T00:50:46;6;5;
43280;PMS5003;62175;49.416;8.690;2022-09-30T00:53:17;6;4;
43280;PMS5003;62175;49.416;8.690;2022-09-30T00:55:50;5;5;
43280;PMS5003;62175;49.416;8.690;2022-09-30T00:58:23;4;4;
43280;PMS5003;62175;49.416;8.690;2022-09-30T01:00:54;6;6;
43280;PMS5003;62175;49.416;8.690;2022-09-30T01:03:24;7;6;
43280;PMS5003;62175;49.416;8.690;2022-09-30T01:05:52;6;5;
43280;PMS5003;62175;49.416;8.690;2022-09-30T01:08:20;5;5;
43280;PMS5003;62175;49.416;8.690;2022-09-30T01:10:51;8;7;
43280;PMS5003;62175;49.416;8.690;2022-09-30T01:13:18;4;4;
43280;PMS5003;62175;49.416;8.690;2022-09-30T01:15:52;5;5;
43280;PMS5003;62175;49.416;8.690;2022-09-30T01:18:29;4;4;
43280;PMS5003;62175;49.416;8.690;2022-09-30T01:23:47;7;5;
43280;PMS5003;62175;49.416;8.690;2022-09-30T01:26:38;5;4;
43280;PMS5003;62175;49.416;8.690;2022-09-30T01:30:37;4;4;
43280;PMS5003;62175;49.416;8.690;2022-09-30T01:33:20;5;5;
43280;PMS5003;62175;49.416;8.690;2022-09-30T01:36:04;5;5;
43280;PMS5003;62175;49.416;8.690;2022-09-30T01:38:47;4;4;
43280;PMS5003;62175;49.416;8.690;2022-09-30T01:41:22;7;6;
43280;PMS5003;62175;49.416;8.690;2022-09-30T01:43:55;5;5;
43280;PMS5003;62175;49.416;8.690;2022-09-30T01:46:29;5;5;
43280;PMS5003;62175;49.416;8.690;2022-09-30T01:49:05;6;5;
43280;PMS5003;62175;49.416;8.690;2022-09-30T01:51:38;8;8;
43280;PMS5003;62175;49.416;8.690;2022-09-30T01:54:12;5;5;
43280;PMS5003;62175;49.416;8.690;2022-09-30T01:56:47;5;5;
43280;PMS5003;62175;49.416;8.690;2022-09-30T01:59:19;6;5;
43280;PMS5003;62175;49.416;8.690;2022-09-30T02:01:51;5;4;
43280;PMS5003;62175;49.416;8.690;2022-09-30T02:04:24;6;6;
43280;PMS5003;62175;49.416;8.690;2022-09-30T02:06:57;5;5;
43280;PMS5003;62175;49.416;8.690;2022-09-30T02:09:27;5;4;
43280;PMS5003;62175;49.416;8.690;2022-09-30T02:11:58;6;6;
43280;PMS5003;62175;49.416;8.690;2022-09-30T02:14:33;5;5;
43280;PMS5003;62175;49.416;8.690;2022-09-30T02:17:06;8;8;
43280;PMS5003;62175;49.416;8.690;2022-09-30T02:19:38;10;9;
43280;PMS5003;62175;49.416;8.690;2022-09-30T02:22:12;9;9;
43280;PMS5003;62175;49.416;8.690;2022-09-30T02:24:43;10;10;
43280;PMS5003;62175;49.416;8.690;2022-09-30T02:27:17;8;7;
43280;PMS5003;62175;49.416;8.690;2022-09-30T02:29:47;7;7;
43280;PMS5003;62175;49.416;8.690;2022-09-30T02:32:19;8;7;
43280;PMS5003;62175;49.416;8.690;2022-09-30T02:34:52;7;7;
43280;PMS5003;62175;49.416;8.690;2022-09-30T02:37:25;7;6;
43280;PMS5003;62175;49.416;8.690;2022-09-30T02:39:59;7;6;
43280;PMS5003;62175;49.416;8.690;2022-09-30T02:42:33;5;5;
43280;PMS5003;62175;49.416;8.690;2022-09-30T02:45:03;7;6;
43280;PMS5003;62175;49.416;8.690;2022-09-30T02:47:38;4;4;
43280;PMS5003;62175;49.416;8.690;2022-09-30T02:50:15;6;6;
43280;PMS5003;62175;49.416;8.690;2022-09-30T02:52:51;7;7;
43280;PMS5003;62175;49.416;8.690;2022-09-30T02:55:26;4;4;
43280;PMS5003;62175;49.416;8.690;2022-09-30T02:57:59;7;5;
43280;PMS5003;62175;49.416;8.690;2022-09-30T03:00:35;5;5;
43280;PMS5003;62175;49.416;8.690;2022-09-30T03:03:03;5;4;
43280;PMS5003;62175;49.416;8.690;2022-09-30T03:05:37;7;5;
43280;PMS5003;62175;49.416;8.690;2022-09-30T03:08:05;7;6;
43280;PMS5003;62175;49.416;8.690;2022-09-30T03:10:32;6;5;
43280;PMS5003;62175;49.416;8.690;2022-09-30T03:13:04;4;3;
43280;PMS5003;62175;49.416;8.690;2022-09-30T03:15:45;5;5;
43280;PMS5003;62175;49.416;8.690;2022-09-30T03:18:28;5;4;
43280;PMS5003;62175;49.416;8.690;2022-09-30T03:21:07;5;4;
43280;PMS5003;62175;49.416;8.690;2022-09-30T03:23:58;7;6;
43280;PMS5003;62175;49.416;8.690;2022-09-30T03:26:39;5;5;
43280;PMS5003;62175;49.416;8.690;2022-09-30T03:29:19;6;5;
43280;PMS5003;62175;49.416;8.690;2022-09-30T03:31:58;5;5;
43280;PMS5003;62175;49.416;8.690;2022-09-30T03:34:37;7;6;
43280;PMS5003;62175;49.416;8.690;2022-09-30T03:37:17;5;5;
43280;PMS5003;62175;49.416;8.690;2022-09-30T03:39:54;5;5;
43280;PMS5003;62175;49.416;8.690;2022-09-30T03:42:27;4;3;
43280;PMS5003;62175;49.416;8.690;2022-09-30T03:45:04;6;5;
43280;PMS5003;62175;49.416;8.690;2022-09-30T03:47:39;5;5;
43280;PMS5003;62175;49.416;8.690;2022-09-30T03:50:13;5;5;
43280;PMS5003;62175;49.416;8.690;2022-09-30T03:52:45;4;4;
43280;PMS5003;62175;49.416;8.690;2022-09-30T03:55:13;7;6;
43280;PMS5003;62175;49.416;8.690;2022-09-30T03:57:41;5;4;
43280;PMS5003;62175;49.416;8.690;2022-09-30T04:00:09;5;5;
43280;PMS5003;62175;49.416;8.690;2022-09-30T04:02:42;6;5;
43280;PMS5003;62175;49.416;8.690;2022-09-30T04:05:09;6;6;
43280;PMS5003;62175;49.416;8.690;2022-09-30T04:07:36;6;6;
43280;PMS5003;62175;49.416;8.690;2022-09-30T04:10:04;4;4;
43280;PMS5003;62175;49.416;8.690;2022-09-30T04:12:32;6;6;
43280;PMS5003;62175;49.416;8.690;2022-09-30T04:14:59;6;5;
43280;PMS5003;62175;49.416;8.690;2022-09-30T04:17:26;7;6;
43280;PMS5003;62175;49.416;8.690;2022-09-30T04:19:53;4;4;
43280;PMS5003;62175;49.416;8.690;2022-09-30T04:22:21;7;5;
43280;PMS5003;62175;49.416;8.690;2022-09-30T04:24:48;6;6;
43280;PMS5003;62175;49.416;8.690;2022-09-30T04:27:15;6;5;
43280;PMS5003;62175;49.416;8.690;2022-09-30T04:29:42;6;6;
43280;PMS5003;62175;49.416;8.690;2022-09-30T04:32:09;6;6;
43280;PMS5003;62175;49.416;8.690;2022-09-30T04:34:36;5;5;
43280;PMS5003;62175;49.416;8.690;2022-09-30T04:37:04;6;5;
43280;PMS5003;62175;49.416;8.690;2022-09-30T04:39:31;11;10;
43280;PMS5003;62175;49.416;8.690;2022-09-30T04:41:58;7;7;
43280;PMS5003;62175;49.416;8.690;2022-09-30T04:44:26;7;6;
43280;PMS5003;62175;49.416;8.690;2022-09-30T04:46:53;7;6;
43280;PMS5003;62175;49.416;8.690;2022-09-30T04:49:20;6;6;
43280;PMS5003;62175;49.416;8.690;2022-09-30T04:51:47;6;5;
43280;PMS5003;62175;49.416;8.690;2022-09-30T04:54:14;5;5;
43280;PMS5003;62175;49.416;8.690;2022-09-30T04:56:41;8;5;
43280;PMS5003;62175;49.416;8.690;2022-09-30T04:59:08;6;5;
43280;PMS5003;62175;49.416;8.690;2022-09-30T05:01:36;7;7;
43280;PMS5003;62175;49.416;8.690;2022-09-30T05:04:05;5;5;
43280;PMS5003;62175;49.416;8.690;2022-09-30T05:06:32;7;5;
43280;PMS5003;62175;49.416;8.690;2022-09-30T05:09:00;7;4;
43280;PMS5003;62175;49.416;8.690;2022-09-30T05:11:27;5;5;
43280;PMS5003;62175;49.416;8.690;2022-09-30T05:13:55;6;6;
43280;PMS5003;62175;49.416;8.690;2022-09-30T05:16:22;5;4;
43280;PMS5003;62175;49.416;8.690;2022-09-30T05:18:49;6;5;
43280;PMS5003;62175;49.416;8.690;2022-09-30T05:21:17;5;5;
43280;PMS5003;62175;49.416;8.690;2022-09-30T05:23:45;8;8;
43280;PMS5003;62175;49.416;8.690;2022-09-30T05:26:13;10;9;
43280;PMS5003;62175;49.416;8.690;2022-09-30T05:28:41;9;7;
43280;PMS5003;62175;49.416;8.690;2022-09-30T05:31:08;10;9;
43280;PMS5003;62175;49.416;8.690;2022-09-30T05:33:36;9;9;
43280;PMS5003;62175;49.416;8.690;2022-09-30T05:36:04;8;8;
43280;PMS5003;62175;49.416;8.690;2022-09-30T05:38:33;10;10;
43280;PMS5003;62175;49.416;8.690;2022-09-30T05:41:07;11;10;
43280;PMS5003;62175;49.416;8.690;2022-09-30T05:43:36;11;9;
43280;PMS5003;62175;49.416;8.690;2022-09-30T05:46:04;7;7;
43280;PMS5003;62175;49.416;8.690;2022-09-30T05:48:32;8;8;
43280;PMS5003;62175;49.416;8.690;2022-09-30T05:50:59;9;9;
43280;PMS5003;62175;49.416;8.690;2022-09-30T05:53:27;9;9;
43280;PMS5003;62175;49.416;8.690;2022-09-30T05:55:55;9;8;
43280;PMS5003;62175;49.416;8.690;2022-09-30T05:58:23;9;8;
43280;PMS5003;62175;49.416;8.690;2022-09-30T06:00:51;8;6;
43280;PMS5003;62175;49.416;8.690;2022-09-30T06:03:18;12;12;
43280;PMS5003;62175;49.416;8.690;2022-09-30T06:05:46;12;10;
43280;PMS5003;62175;49.416;8.690;2022-09-30T06:08:14;14;13;
43280;PMS5003;62175;49.416;8.690;2022-09-30T06:10:42;13;12;
43280;PMS5003;62175;49.416;8.690;2022-09-30T06:13:10;16;13;
43280;PMS5003;62175;49.416;8.690;2022-09-30T06:15:37;16;15;
43280;PMS5003;62175;49.416;8.690;2022-09-30T06:18:05;17;17;
43280;PMS5003;62175;49.416;8.690;2022-09-30T06:20:32;19;17;
43280;PMS5003;62175;49.416;8.690;2022-09-30T06:23:00;13;12;
43280;PMS5003;62175;49.416;8.690;2022-09-30T06:25:28;13;12;
43280;PMS5003;62175;49.416;8.690;2022-09-30T06:27:55;16;15;
43280;PMS5003;62175;49.416;8.690;2022-09-30T06:30:23;16;15;
43280;PMS5003;62175;49.416;8.690;2022-09-30T06:32:50;16;14;
43280;PMS5003;62175;49.416;8.690;2022-09-30T06:35:22;15;14;
43280;PMS5003;62175;49.416;8.690;2022-09-30T06:37:49;17;17;
43280;PMS5003;62175;49.416;8.690;2022-09-30T06:40:17;18;15;
43280;PMS5003;62175;49.416;8.690;2022-09-30T06:42:45;18;17;
43280;PMS5003;62175;49.416;8.690;2022-09-30T06:45:12;15;14;
43280;PMS5003;62175;49.416;8.690;2022-09-30T06:47:40;16;15;
43280;PMS5003;62175;49.416;8.690;2022-09-30T06:50:08;20;19;
43280;PMS5003;62175;49.416;8.690;2022-09-30T06:52:35;17;16;
43280;PMS5003;62175;49.416;8.690;2022-09-30T06:55:02;16;15;
43280;PMS5003;62175;49.416;8.690;2022-09-30T06:57:30;15;15;
43280;PMS5003;62175;49.416;8.690;2022-09-30T06:59:57;14;14;
43280;PMS5003;62175;49.416;8.690;2022-09-30T07:02:24;16;14;
43280;PMS5003;62175;49.416;8.690;2022-09-30T07:04:51;15;14;
43280;PMS5003;62175;49.416;8.690;2022-09-30T07:07:18;16;14;
43280;PMS5003;62175;49.416;8.690;2022-09-30T07:09:45;16;16;
43280;PMS5003;62175;49.416;8.690;2022-09-30T07:12:13;15;13;
43280;PMS5003;62175;49.416;8.690;2022-09-30T07:14:40;13;13;
43280;PMS5003;62175;49.416;8.690;2022-09-30T07:17:07;14;13;
43280;PMS5003;62175;49.416;8.690;2022-09-30T07:19:34;15;14;
43280;PMS5003;62175;49.416;8.690;2022-09-30T07:22:01;14;13;
43280;PMS5003;62175;49.416;8.690;2022-09-30T07:24:29;14;14;
43280;PMS5003;62175;49.416;8.690;2022-09-30T07:26:56;17;16;
43280;PMS5003;62175;49.416;8.690;2022-09-30T07:29:23;14;13;
43280;PMS5003;62175;49.416;8.690;2022-09-30T07:31:50;16;16;
43280;PMS5003;62175;49.416;8.690;2022-09-30T07:34:17;17;16;
43280;PMS5003;62175;49.416;8.690;2022-09-30T07:36:44;13;13;
43280;PMS5003;62175;49.416;8.690;2022-09-30T07:45:17;14;14;
43280;PMS5003;62175;49.416;8.690;2022-09-30T07:47:45;17;16;
43280;PMS5003;62175;49.416;8.690;2022-09-30T07:50:12;18;16;
43280;PMS5003;62175;49.416;8.690;2022-09-30T07:53:13;14;13;
43280;PMS5003;62175;49.416;8.690;2022-09-30T07:56:39;15;14;
43280;PMS5003;62175;49.416;8.690;2022-09-30T07:59:12;15;14;
43280;PMS5003;62175;49.416;8.690;2022-09-30T08:08:07;16;15;
43280;PMS5003;62175;49.416;8.690;2022-09-30T08:10:47;16;15;
43280;PMS5003;62175;49.416;8.690;2022-09-30T08:14:50;14;14;
43280;PMS5003;62175;49.416;8.690;2022-09-30T08:19:04;14;14;
43280;PMS5003;62175;49.416;8.690;2022-09-30T08:21:32;16;13;
43280;PMS5003;62175;49.416;8.690;2022-09-30T08:23:59;15;14;
43280;PMS5003;62175;49.416;8.690;2022-09-30T08:28:00;17;15;
43280;PMS5003;62175;49.416;8.690;2022-09-30T08:34:22;17;17;
43280;PMS5003;62175;49.416;8.690;2022-09-30T08:36:49;15;15;
43280;PMS5003;62175;49.416;8.690;2022-09-30T08:39:36;14;14;
43280;PMS5003;62175;49.416;8.690;2022-09-30T08:42:13;15;14;
43280;PMS5003;62175;49.416;8.690;2022-09-30T08:45:19;15;14;
43280;PMS5003;62175;49.416;8.690;2022-09-30T08:58:44;20;20;
43280;PMS5003;62175;49.416;8.690;2022-09-30T09:37:36;22;22;
43280;PMS5003;62175;49.416;8.690;2022-09-30T09:45:47;19;18;
43280;PMS5003;62175;49.416;8.690;2022-09-30T09:48:43;16;15;
43280;PMS5003;62175;49.416;8.690;2022-09-30T09:51:12;21;20;
43280;PMS5003;62175;49.416;8.690;2022-09-30T09:53:48;23;20;
43280;PMS5003;62175;49.416;8.690;2022-09-30T09:56:18;20;19;
43280;PMS5003;62175;49.416;8.690;2022-09-30T10:04:50;19;19;
43280;PMS5003;62175;49.416;8.690;2022-09-30T10:10:15;21;18;
43280;PMS5003;62175;49.416;8.690;2022-09-30T10:29:39;16;15;
43280;PMS5003;62175;49.416;8.690;2022-09-30T10:32:13;17;17;
43280;PMS5003;62175;49.416;8.690;2022-09-30T10:34:41;17;16;
43280;PMS5003;62175;49.416;8.690;2022-09-30T10:37:09;20;17;
43280;PMS5003;62175;49.416;8.690;2022-09-30T10:39:51;20;18;
43280;PMS5003;62175;49.416;8.690;2022-09-30T10:42:55;23;19;
43280;PMS5003;62175;49.416;8.690;2022-09-30T10:45:24;32;30;
43280;PMS5003;62175;49.416;8.690;2022-09-30T10:50:48;20;17;
43280;PMS5003;62175;49.416;8.690;2022-09-30T10:54:09;19;18;
43280;PMS5003;62175;49.416;8.690;2022-09-30T10:58:19;22;19;
43280;PMS5003;62175;49.416;8.690;2022-09-30T11:01:11;23;20;
43280;PMS5003;62175;49.416;8.690;2022-09-30T11:03:50;20;20;
43280;PMS5003;62175;49.416;8.690;2022-09-30T11:06:24;23;19;
43280;PMS5003;62175;49.416;8.690;2022-09-30T11:08:57;17;15;
43280;PMS5003;62175;49.416;8.690;2022-09-30T11:11:32;19;16;
43280;PMS5003;62175;49.416;8.690;2022-09-30T11:14:11;18;16;
43280;PMS5003;62175;49.416;8.690;2022-09-30T11:16:48;17;16;
43280;PMS5003;62175;49.416;8.690;2022-09-30T11:19:27;15;13;
43280;PMS5003;62175;49.416;8.690;2022-09-30T11:21:59;15;14;
43280;PMS5003;62175;49.416;8.690;2022-09-30T11:24:42;18;17;
43280;PMS5003;62175;49.416;8.690;2022-09-30T11:27:13;13;12;
43280;PMS5003;62175;49.416;8.690;2022-09-30T11:29:52;12;11;
43280;PMS5003;62175;49.416;8.690;2022-09-30T11:32:31;13;12;
43280;PMS5003;62175;49.416;8.690;2022-09-30T11:35:12;11;11;
43280;PMS5003;62175;49.416;8.690;2022-09-30T11:37:56;10;10;
43280;PMS5003;62175;49.416;8.690;2022-09-30T11:40:36;10;10;
43280;PMS5003;62175;49.416;8.690;2022-09-30T11:43:14;10;10;
43280;PMS5003;62175;49.416;8.690;2022-09-30T11:45:59;10;9;
43280;PMS5003;62175;49.416;8.690;2022-09-30T11:48:58;9;9;
43280;PMS5003;62175;49.416;8.690;2022-09-30T11:51:43;10;9;
43280;PMS5003;62175;49.416;8.690;2022-09-30T11:54:23;9;8;
43280;PMS5003;62175;49.416;8.690;2022-09-30T11:57:01;13;11;
43280;PMS5003;62175;49.416;8.690;2022-09-30T11:59:40;11;11;
43280;PMS5003;62175;49.416;8.690;2022-09-30T12:02:16;13;11;
43280;PMS5003;62175;49.416;8.690;2022-09-30T12:04:54;13;11;
43280;PMS5003;62175;49.416;8.690;2022-09-30T12:10:15;10;10;
43280;PMS5003;62175;49.416;8.690;2022-09-30T12:12:48;9;9;
43280;PMS5003;62175;49.416;8.690;2022-09-30T12:15:19;13;10;
43280;PMS5003;62175;49.416;8.690;2022-09-30T12:17:50;12;11;
43280;PMS5003;62175;49.416;8.690;2022-09-30T12:20:23;13;10;
43280;PMS5003;62175;49.416;8.690;2022-09-30T12:22:57;10;10;
43280;PMS5003;62175;49.416;8.690;2022-09-30T12:25:31;9;9;
43280;PMS5003;62175;49.416;8.690;2022-09-30T12:28:06;13;11;
43280;PMS5003;62175;49.416;8.690;2022-09-30T12:31:26;9;9;
43280;PMS5003;62175;49.416;8.690;2022-09-30T12:34:14;9;8;
43280;PMS5003;62175;49.416;8.690;2022-09-30T12:36:56;8;8;
43280;PMS5003;62175;49.416;8.690;2022-09-30T12:40:16;8;7;
43280;PMS5003;62175;49.416;8.690;2022-09-30T12:43:18;8;8;
43280;PMS5003;62175;49.416;8.690;2022-09-30T12:46:03;9;8;
43280;PMS5003;62175;49.416;8.690;2022-09-30T12:51:31;9;8;
43280;PMS5003;62175;49.416;8.690;2022-09-30T12:54:01;7;6;
43280;PMS5003;62175;49.416;8.690;2022-09-30T12:56:37;9;8;
43280;PMS5003;62175;49.416;8.690;2022-09-30T12:59:08;8;8;
43280;PMS5003;62175;49.416;8.690;2022-09-30T13:01:38;8;8;
43280;PMS5003;62175;49.416;8.690;2022-09-30T13:04:13;7;6;
43280;PMS5003;62175;49.416;8.690;2022-09-30T13:07:16;7;7;
43280;PMS5003;62175;49.416;8.690;2022-09-30T13:10:24;7;6;
43280;PMS5003;62175;49.416;8.690;2022-09-30T13:13:11;9;7;
43280;PMS5003;62175;49.416;8.690;2022-09-30T13:15:45;6;6;
43280;PMS5003;62175;49.416;8.690;2022-09-30T13:22:41;9;8;
43280;PMS5003;62175;49.416;8.690;2022-09-30T13:25:14;11;10;
43280;PMS5003;62175;49.416;8.690;2022-09-30T13:28:27;10;9;
43280;PMS5003;62175;49.416;8.690;2022-09-30T13:32:28;7;7;
43280;PMS5003;62175;49.416;8.690;2022-09-30T13:34:59;7;7;
43280;PMS5003;62175;49.416;8.690;2022-09-30T13:39:26;8;8;
43280;PMS5003;62175;49.416;8.690;2022-09-30T13:42:00;9;9;
43280;PMS5003;62175;49.416;8.690;2022-09-30T13:47:14;8;8;
43280;PMS5003;62175;49.416;8.690;2022-09-30T13:49:54;9;7;
43280;PMS5003;62175;49.416;8.690;2022-09-30T13:54:16;7;6;
43280;PMS5003;62175;49.416;8.690;2022-09-30T14:00:13;7;7;
43280;PMS5003;62175;49.416;8.690;2022-09-30T14:02:47;9;8;
43280;PMS5003;62175;49.416;8.690;2022-09-30T14:06:13;8;7;
43280;PMS5003;62175;49.416;8.690;2022-09-30T14:10:01;7;6;
43280;PMS5003;62175;49.416;8.690;2022-09-30T14:12:46;10;7;
43280;PMS5003;62175;49.416;8.690;2022-09-30T14:15:40;6;6;
43280;PMS5003;62175;49.416;8.690;2022-09-30T14:18:35;6;6;
43280;PMS5003;62175;49.416;8.690;2022-09-30T14:21:42;6;5;
43280;PMS5003;62175;49.416;8.690;2022-09-30T14:24:25;5;5;
43280;PMS5003;62175;49.416;8.690;2022-09-30T14:26:58;6;6;
43280;PMS5003;62175;49.416;8.690;2022-09-30T22:02:50;10;10;
43280;PMS5003;62175;49.416;8.690;2022-09-30T22:05:18;12;11;
43280;PMS5003;62175;49.416;8.690;2022-09-30T22:07:45;12;12;
43280;PMS5003;62175;49.416;8.690;2022-09-30T22:10:12;13;12;
43280;PMS5003;62175;49.416;8.690;2022-09-30T22:12:40;11;11;
43280;PMS5003;62175;49.416;8.690;2022-09-30T22:15:07;12;12;
43280;PMS5003;62175;49.416;8.690;2022-09-30T22:17:35;10;9;
43280;PMS5003;62175;49.416;8.690;2022-09-30T22:20:02;13;11;
43280;PMS5003;62175;49.416;8.690;2022-09-30T22:22:30;11;9;
43280;PMS5003;62175;49.416;8.690;2022-09-30T22:24:57;12;11;
43280;PMS5003;62175;49.416;8.690;2022-09-30T22:27:24;11;11;
43280;PMS5003;62175;49.416;8.690;2022-09-30T22:29:51;13;12;
43280;PMS5003;62175;49.416;8.690;2022-09-30T22:32:18;13;13;
43280;PMS5003;62175;49.416;8.690;2022-09-30T22:34:46;11;11;
43280;PMS5003;62175;49.416;8.690;2022-09-30T22:37:13;13;13;
43280;PMS5003;62175;49.416;8.690;2022-09-30T22:39:40;14;14;
43280;PMS5003;62175;49.416;8.690;2022-09-30T22:42:07;13;12;
43280;PMS5003;62175;49.416;8.690;2022-09-30T22:44:35;15;13;
43280;PMS5003;62175;49.416;8.690;2022-09-30T22:47:03;12;11;
43280;PMS5003;62175;49.416;8.690;2022-09-30T22:49:33;12;12;
43280;PMS5003;62175;49.416;8.690;2022-09-30T22:52:01;12;11;
43280;PMS5003;62175;49.416;8.690;2022-09-30T22:54:29;12;12;
43280;PMS5003;62175;49.416;8.690;2022-09-30T22:56:56;14;13;
43280;PMS5003;62175;49.416;8.690;2022-09-30T22:59:23;12;11;
43280;PMS5003;62175;49.416;8.690;2022-09-30T23:01:50;13;13;
43280;PMS5003;62175;49.416;8.690;2022-09-30T23:04:18;12;11;
43280;PMS5003;62175;49.416;8.690;2022-09-30T23:06:47;14;13;
43280;PMS5003;62175;49.416;8.690;2022-09-30T23:09:15;14;13;
43280;PMS5003;62175;49.416;8.690;2022-09-30T23:11:43;12;12;
43280;PMS5003;62175;49.416;8.690;2022-09-30T23:14:11;17;15;
43280;PMS5003;62175;49.416;8.690;2022-09-30T23:16:38;17;17;
43280;PMS5003;62175;49.416;8.690;2022-09-30T23:19:05;13;13;
43280;PMS5003;62175;49.416;8.690;2022-09-30T23:21:33;14;14;
43280;PMS5003;62175;49.416;8.690;2022-09-30T23:24:02;15;14;
43280;PMS5003;62175;49.416;8.690;2022-09-30T23:26:29;14;13;
43280;PMS5003;62175;49.416;8.690;2022-09-30T23:28:57;12;11;
43280;PMS5003;62175;49.416;8.690;2022-09-30T23:31:27;13;12;
43280;PMS5003;62175;49.416;8.690;2022-09-30T23:33:55;13;13;
43280;PMS5003;62175;49.416;8.690;2022-09-30T23:36:26;9;9;
43280;PMS5003;62175;49.416;8.690;2022-09-30T23:38:54;9;8;
43280;PMS5003;62175;49.416;8.690;2022-09-30T23:41:26;12;11;
43280;PMS5003;62175;49.416;8.690;2022-09-30T23:43:53;13;12;
43280;PMS5003;62175;49.416;8.690;2022-09-30T23:46:20;10;10;
43280;PMS5003;62175;49.416;8.690;2022-09-30T23:48:47;9;8;
43280;PMS5003;62175;49.416;8.690;2022-09-30T23:51:14;11;11;
43280;PMS5003;62175;49.416;8.690;2022-09-30T23:53:42;12;12;
43280;PMS5003;62175;49.416;8.690;2022-09-30T23:56:10;10;9;
43280;PMS5003;62175;49.416;8.690;2022-09-30T23:58:38;12;12;
